sensor_id;sensor_type;location;lat;lon;timestamp;temperature;humidity
45044;DHT22;30784;48.490;9.688;2022-11-09T00:01:27;14.40;49.70
45044;DHT22;30784;48.490;9.688;2022-11-09T00:03:54;14.40;49.70
45044;DHT22;30784;48.490;9.688;2022-11-09T00:06:21;14.40;49.70
45044;DHT22;30784;48.490;9.688;2022-11-09T00:08:46;14.40;49.60
45044;DHT22;30784;48.490;9.688;2022-11-09T00:11:12;14.50;49.70
45044;DHT22;30784;48.490;9.688;2022-11-09T00:13:39;14.50;49.60
45044;DHT22;30784;48.490;9.688;2022-11-09T00:16:06;14.50;49.60
45044;DHT22;30784;48.490;9.688;2022-11-09T00:18:35;14.60;49.70
45044;DHT22;30784;48.490;9.688;2022-11-09T00:21:08;14.60;49.60
45044;DHT22;30784;48.490;9.688;2022-11-09T00:23:35;14.60;49.60
45044;DHT22;30784;48.490;9.688;2022-11-09T00:26:05;14.60;49.60
45044;DHT22;30784;48.490;9.688;2022-11-09T00:28:31;14.70;49.50
45044;DHT22;30784;48.490;9.688;2022-11-09T00:31:04;14.70;49.50
45044;DHT22;30784;48.490;9.688;2022-11-09T00:33:33;14.70;49.50
45044;DHT22;30784;48.490;9.688;2022-11-09T00:36:05;14.70;49.40
45044;DHT22;30784;48.490;9.688;2022-11-09T00:38:34;14.70;49.40
45044;DHT22;30784;48.490;9.688;2022-11-09T00:41:04;14.70;49.30
45044;DHT22;30784;48.490;9.688;2022-11-09T00:43:30;14.70;49.30
45044;DHT22;30784;48.490;9.688;2022-11-09T00:45:55;14.70;49.20
45044;DHT22;30784;48.490;9.688;2022-11-09T00:48:21;14.80;49.20
45044;DHT22;30784;48.490;9.688;2022-11-09T00:50:50;14.80;49.30
45044;DHT22;30784;48.490;9.688;2022-11-09T00:53:17;14.80;49.20
45044;DHT22;30784;48.490;9.688;2022-11-09T00:55:42;14.80;49.10
45044;DHT22;30784;48.490;9.688;2022-11-09T00:58:08;14.80;49.10
45044;DHT22;30784;48.490;9.688;2022-11-09T01:00:33;14.80;49.00
45044;DHT22;30784;48.490;9.688;2022-11-09T01:02:59;14.90;49.10
45044;DHT22;30784;48.490;9.688;2022-11-09T01:05:24;14.90;49.00
45044;DHT22;30784;48.490;9.688;2022-11-09T01:07:50;14.90;48.90
45044;DHT22;30784;48.490;9.688;2022-11-09T01:10:15;14.90;48.90
45044;DHT22;30784;48.490;9.688;2022-11-09T01:12:41;14.90;48.80
45044;DHT22;30784;48.490;9.688;2022-11-09T01:15:10;15.00;48.80
45044;DHT22;30784;48.490;9.688;2022-11-09T01:17:35;15.00;48.70
45044;DHT22;30784;48.490;9.688;2022-11-09T01:20:01;15.00;48.60
45044;DHT22;30784;48.490;9.688;2022-11-09T01:22:26;15.00;48.70
45044;DHT22;30784;48.490;9.688;2022-11-09T01:24:54;15.00;48.70
45044;DHT22;30784;48.490;9.688;2022-11-09T01:27:20;15.00;48.60
45044;DHT22;30784;48.490;9.688;2022-11-09T01:29:45;15.00;48.50
45044;DHT22;30784;48.490;9.688;2022-11-09T01:32:11;15.00;48.60
45044;DHT22;30784;48.490;9.688;2022-11-09T01:34:36;15.00;48.50
45044;DHT22;30784;48.490;9.688;2022-11-09T01:37:02;15.00;48.50
45044;DHT22;30784;48.490;9.688;2022-11-09T01:39:27;15.00;48.50
45044;DHT22;30784;48.490;9.688;2022-11-09T01:41:53;15.10;48.60
45044;DHT22;30784;48.490;9.688;2022-11-09T01:44:19;15.10;48.50
45044;DHT22;30784;48.490;9.688;2022-11-09T01:52:31;15.10;48.60
45044;DHT22;30784;48.490;9.688;2022-11-09T01:55:01;15.10;48.50
45044;DHT22;30784;48.490;9.688;2022-11-09T01:57:31;15.10;48.50
45044;DHT22;30784;48.490;9.688;2022-11-09T02:00:04;15.10;48.50
45044;DHT22;30784;48.490;9.688;2022-11-09T02:02:32;15.10;48.50
45044;DHT22;30784;48.490;9.688;2022-11-09T02:05:02;15.10;48.50
45044;DHT22;30784;48.490;9.688;2022-11-09T02:07:31;15.10;48.50
45044;DHT22;30784;48.490;9.688;2022-11-09T02:10:03;15.20;48.50
45044;DHT22;30784;48.490;9.688;2022-11-09T02:12:32;15.20;48.50
45044;DHT22;30784;48.490;9.688;2022-11-09T02:15:00;15.20;48.50
45044;DHT22;30784;48.490;9.688;2022-11-09T02:17:27;15.20;48.40
45044;DHT22;30784;48.490;9.688;2022-11-09T02:19:56;15.20;48.40
45044;DHT22;30784;48.490;9.688;2022-11-09T02:22:22;15.20;48.30
45044;DHT22;30784;48.490;9.688;2022-11-09T02:24:48;15.20;48.20
45044;DHT22;30784;48.490;9.688;2022-11-09T02:27:13;15.20;48.00
45044;DHT22;30784;48.490;9.688;2022-11-09T02:29:44;15.20;47.80
45044;DHT22;30784;48.490;9.688;2022-11-09T02:32:30;15.20;47.40
45044;DHT22;30784;48.490;9.688;2022-11-09T02:34:56;15.20;47.70
45044;DHT22;30784;48.490;9.688;2022-11-09T02:39:52;15.20;47.40
45044;DHT22;30784;48.490;9.688;2022-11-09T02:42:18;15.10;47.50
45044;DHT22;30784;48.490;9.688;2022-11-09T02:44:48;15.10;47.30
45044;DHT22;30784;48.490;9.688;2022-11-09T02:47:15;15.10;47.30
45044;DHT22;30784;48.490;9.688;2022-11-09T02:49:40;15.10;47.20
45044;DHT22;30784;48.490;9.688;2022-11-09T02:52:06;15.10;47.20
45044;DHT22;30784;48.490;9.688;2022-11-09T02:54:32;15.10;47.00
45044;DHT22;30784;48.490;9.688;2022-11-09T02:56:57;15.10;47.00
45044;DHT22;30784;48.490;9.688;2022-11-09T02:59:23;15.00;46.80
45044;DHT22;30784;48.490;9.688;2022-11-09T03:01:48;15.10;46.60
45044;DHT22;30784;48.490;9.688;2022-11-09T03:04:14;15.00;46.50
45044;DHT22;30784;48.490;9.688;2022-11-09T03:06:40;15.00;46.40
45044;DHT22;30784;48.490;9.688;2022-11-09T03:09:07;15.00;46.30
45044;DHT22;30784;48.490;9.688;2022-11-09T03:11:37;15.00;46.20
45044;DHT22;30784;48.490;9.688;2022-11-09T03:14:03;15.00;46.70
45044;DHT22;30784;48.490;9.688;2022-11-09T03:16:29;15.00;46.20
45044;DHT22;30784;48.490;9.688;2022-11-09T03:18:54;15.00;46.10
45044;DHT22;30784;48.490;9.688;2022-11-09T03:21:21;15.00;46.00
45044;DHT22;30784;48.490;9.688;2022-11-09T03:23:47;15.00;45.70
45044;DHT22;30784;48.490;9.688;2022-11-09T03:26:13;15.00;45.50
45044;DHT22;30784;48.490;9.688;2022-11-09T03:28:39;15.00;44.90
45044;DHT22;30784;48.490;9.688;2022-11-09T03:31:05;15.00;44.80
45044;DHT22;30784;48.490;9.688;2022-11-09T03:33:31;15.00;44.90
45044;DHT22;30784;48.490;9.688;2022-11-09T03:35:56;15.10;44.70
45044;DHT22;30784;48.490;9.688;2022-11-09T03:38:22;15.00;44.60
45044;DHT22;30784;48.490;9.688;2022-11-09T03:40:48;15.10;44.90
45044;DHT22;30784;48.490;9.688;2022-11-09T03:43:13;15.10;44.80
45044;DHT22;30784;48.490;9.688;2022-11-09T03:45:39;15.10;44.90
45044;DHT22;30784;48.490;9.688;2022-11-09T03:48:05;15.10;45.00
45044;DHT22;30784;48.490;9.688;2022-11-09T03:50:32;15.20;45.00
45044;DHT22;30784;48.490;9.688;2022-11-09T03:52:59;15.20;45.00
45044;DHT22;30784;48.490;9.688;2022-11-09T03:55:26;15.20;44.90
45044;DHT22;30784;48.490;9.688;2022-11-09T03:57:52;15.20;44.90
45044;DHT22;30784;48.490;9.688;2022-11-09T04:00:19;15.20;44.90
45044;DHT22;30784;48.490;9.688;2022-11-09T04:02:45;15.20;45.00
45044;DHT22;30784;48.490;9.688;2022-11-09T04:05:11;15.30;45.20
45044;DHT22;30784;48.490;9.688;2022-11-09T04:07:37;15.30;45.30
45044;DHT22;30784;48.490;9.688;2022-11-09T04:10:04;15.30;45.40
45044;DHT22;30784;48.490;9.688;2022-11-09T04:12:30;15.30;45.50
45044;DHT22;30784;48.490;9.688;2022-11-09T04:14:55;15.30;45.50
45044;DHT22;30784;48.490;9.688;2022-11-09T04:17:21;15.30;45.50
45044;DHT22;30784;48.490;9.688;2022-11-09T04:19:46;15.40;45.60
45044;DHT22;30784;48.490;9.688;2022-11-09T04:22:12;15.40;45.90
45044;DHT22;30784;48.490;9.688;2022-11-09T04:24:37;15.40;46.20
45044;DHT22;30784;48.490;9.688;2022-11-09T04:27:03;15.40;46.30
45044;DHT22;30784;48.490;9.688;2022-11-09T04:29:29;15.40;46.30
45044;DHT22;30784;48.490;9.688;2022-11-09T04:31:55;15.40;46.40
45044;DHT22;30784;48.490;9.688;2022-11-09T04:34:20;15.30;46.50
45044;DHT22;30784;48.490;9.688;2022-11-09T04:36:46;15.40;46.60
45044;DHT22;30784;48.490;9.688;2022-11-09T04:39:11;15.30;46.50
45044;DHT22;30784;48.490;9.688;2022-11-09T04:41:37;15.30;46.70
45044;DHT22;30784;48.490;9.688;2022-11-09T04:44:02;15.30;46.80
45044;DHT22;30784;48.490;9.688;2022-11-09T04:46:28;15.30;47.00
45044;DHT22;30784;48.490;9.688;2022-11-09T04:48:54;15.30;47.20
45044;DHT22;30784;48.490;9.688;2022-11-09T04:51:19;15.30;47.50
45044;DHT22;30784;48.490;9.688;2022-11-09T04:53:45;15.30;47.80
45044;DHT22;30784;48.490;9.688;2022-11-09T04:56:11;15.30;48.20
45044;DHT22;30784;48.490;9.688;2022-11-09T04:58:37;15.20;48.50
45044;DHT22;30784;48.490;9.688;2022-11-09T05:01:11;15.20;48.70
45044;DHT22;30784;48.490;9.688;2022-11-09T05:03:37;15.20;49.00
45044;DHT22;30784;48.490;9.688;2022-11-09T05:06:03;15.20;49.80
45044;DHT22;30784;48.490;9.688;2022-11-09T05:08:48;15.20;49.40
45044;DHT22;30784;48.490;9.688;2022-11-09T05:11:13;15.10;49.40
45044;DHT22;30784;48.490;9.688;2022-11-09T05:13:39;15.10;49.80
45044;DHT22;30784;48.490;9.688;2022-11-09T05:16:05;15.10;49.90
45044;DHT22;30784;48.490;9.688;2022-11-09T05:18:31;15.10;50.30
45044;DHT22;30784;48.490;9.688;2022-11-09T05:21:00;15.00;50.30
45044;DHT22;30784;48.490;9.688;2022-11-09T05:23:26;15.00;50.50
45044;DHT22;30784;48.490;9.688;2022-11-09T05:26:10;14.90;50.60
45044;DHT22;30784;48.490;9.688;2022-11-09T05:28:35;14.90;51.70
45044;DHT22;30784;48.490;9.688;2022-11-09T05:31:01;14.90;51.20
45044;DHT22;30784;48.490;9.688;2022-11-09T05:33:27;14.80;51.50
45044;DHT22;30784;48.490;9.688;2022-11-09T05:35:56;14.80;51.50
45044;DHT22;30784;48.490;9.688;2022-11-09T05:38:22;14.70;51.60
45044;DHT22;30784;48.490;9.688;2022-11-09T05:40:51;14.70;52.00
45044;DHT22;30784;48.490;9.688;2022-11-09T05:43:17;14.60;52.70
45044;DHT22;30784;48.490;9.688;2022-11-09T05:45:44;14.60;52.30
45044;DHT22;30784;48.490;9.688;2022-11-09T05:48:14;14.50;52.60
45044;DHT22;30784;48.490;9.688;2022-11-09T05:50:39;14.50;52.60
45044;DHT22;30784;48.490;9.688;2022-11-09T05:53:06;14.50;51.00
45044;DHT22;30784;48.490;9.688;2022-11-09T05:55:32;14.50;52.80
45044;DHT22;30784;48.490;9.688;2022-11-09T05:57:57;14.40;53.10
45044;DHT22;30784;48.490;9.688;2022-11-09T06:00:23;14.40;53.00
45044;DHT22;30784;48.490;9.688;2022-11-09T06:02:49;14.40;54.00
45044;DHT22;30784;48.490;9.688;2022-11-09T06:05:16;14.40;53.50
45044;DHT22;30784;48.490;9.688;2022-11-09T06:07:41;14.40;53.90
45044;DHT22;30784;48.490;9.688;2022-11-09T06:10:08;14.30;54.60
45044;DHT22;30784;48.490;9.688;2022-11-09T06:12:34;14.30;54.90
45044;DHT22;30784;48.490;9.688;2022-11-09T06:14:59;14.30;55.10
45044;DHT22;30784;48.490;9.688;2022-11-09T06:17:25;14.30;55.80
45044;DHT22;30784;48.490;9.688;2022-11-09T06:19:51;14.20;56.40
45044;DHT22;30784;48.490;9.688;2022-11-09T06:22:16;14.20;56.40
45044;DHT22;30784;48.490;9.688;2022-11-09T06:24:42;14.20;56.40
45044;DHT22;30784;48.490;9.688;2022-11-09T06:27:07;14.20;56.20
45044;DHT22;30784;48.490;9.688;2022-11-09T06:29:33;14.20;56.70
45044;DHT22;30784;48.490;9.688;2022-11-09T06:31:58;14.20;56.90
45044;DHT22;30784;48.490;9.688;2022-11-09T06:34:24;14.20;57.60
45044;DHT22;30784;48.490;9.688;2022-11-09T06:36:50;14.10;57.50
45044;DHT22;30784;48.490;9.688;2022-11-09T06:39:15;14.10;57.70
45044;DHT22;30784;48.490;9.688;2022-11-09T06:41:41;14.10;58.10
45044;DHT22;30784;48.490;9.688;2022-11-09T06:44:06;14.10;58.40
45044;DHT22;30784;48.490;9.688;2022-11-09T06:46:32;14.10;58.60
45044;DHT22;30784;48.490;9.688;2022-11-09T06:48:58;14.10;58.70
45044;DHT22;30784;48.490;9.688;2022-11-09T06:51:24;14.10;59.30
45044;DHT22;30784;48.490;9.688;2022-11-09T06:53:49;14.10;59.40
45044;DHT22;30784;48.490;9.688;2022-11-09T06:56:15;14.20;59.60
45044;DHT22;30784;48.490;9.688;2022-11-09T06:58:41;14.20;59.90
45044;DHT22;30784;48.490;9.688;2022-11-09T07:01:11;14.20;59.80
45044;DHT22;30784;48.490;9.688;2022-11-09T07:03:38;14.20;60.00
45044;DHT22;30784;48.490;9.688;2022-11-09T07:06:06;14.20;60.50
45044;DHT22;30784;48.490;9.688;2022-11-09T07:08:32;14.20;60.50
45044;DHT22;30784;48.490;9.688;2022-11-09T07:11:05;14.20;60.20
45044;DHT22;30784;48.490;9.688;2022-11-09T07:13:31;14.30;60.00
45044;DHT22;30784;48.490;9.688;2022-11-09T07:15:56;14.30;60.60
45044;DHT22;30784;48.490;9.688;2022-11-09T07:18:22;14.40;61.00
45044;DHT22;30784;48.490;9.688;2022-11-09T07:20:48;14.30;61.00
45044;DHT22;30784;48.490;9.688;2022-11-09T07:23:14;14.40;60.90
45044;DHT22;30784;48.490;9.688;2022-11-09T07:25:39;14.30;60.90
45044;DHT22;30784;48.490;9.688;2022-11-09T07:28:11;14.30;60.80
45044;DHT22;30784;48.490;9.688;2022-11-09T07:30:37;14.30;61.10
45044;DHT22;30784;48.490;9.688;2022-11-09T07:33:08;14.40;61.30
45044;DHT22;30784;48.490;9.688;2022-11-09T07:35:35;14.40;61.30
45044;DHT22;30784;48.490;9.688;2022-11-09T07:38:01;14.50;61.30
45044;DHT22;30784;48.490;9.688;2022-11-09T07:40:27;14.40;61.70
45044;DHT22;30784;48.490;9.688;2022-11-09T07:42:52;14.40;61.50
45044;DHT22;30784;48.490;9.688;2022-11-09T07:45:21;14.40;61.70
45044;DHT22;30784;48.490;9.688;2022-11-09T07:47:47;14.40;61.80
45044;DHT22;30784;48.490;9.688;2022-11-09T07:50:12;14.50;62.30
45044;DHT22;30784;48.490;9.688;2022-11-09T07:52:38;14.40;62.00
45044;DHT22;30784;48.490;9.688;2022-11-09T07:55:04;14.40;62.20
45044;DHT22;30784;48.490;9.688;2022-11-09T07:57:29;14.40;62.20
45044;DHT22;30784;48.490;9.688;2022-11-09T07:59:55;14.40;62.20
45044;DHT22;30784;48.490;9.688;2022-11-09T08:02:21;14.40;62.10
45044;DHT22;30784;48.490;9.688;2022-11-09T08:04:46;14.40;62.30
45044;DHT22;30784;48.490;9.688;2022-11-09T08:07:12;14.40;62.30
45044;DHT22;30784;48.490;9.688;2022-11-09T08:09:37;14.50;62.40
45044;DHT22;30784;48.490;9.688;2022-11-09T08:12:03;14.50;62.40
45044;DHT22;30784;48.490;9.688;2022-11-09T08:14:28;14.50;62.70
45044;DHT22;30784;48.490;9.688;2022-11-09T08:16:54;14.50;62.50
45044;DHT22;30784;48.490;9.688;2022-11-09T08:19:19;14.50;62.80
45044;DHT22;30784;48.490;9.688;2022-11-09T08:21:45;14.50;62.70
45044;DHT22;30784;48.490;9.688;2022-11-09T08:24:10;14.50;62.60
45044;DHT22;30784;48.490;9.688;2022-11-09T08:26:36;14.60;62.90
45044;DHT22;30784;48.490;9.688;2022-11-09T08:29:01;14.60;63.10
45044;DHT22;30784;48.490;9.688;2022-11-09T08:31:27;14.60;63.20
45044;DHT22;30784;48.490;9.688;2022-11-09T08:33:53;14.50;63.10
45044;DHT22;30784;48.490;9.688;2022-11-09T08:36:19;14.50;63.50
45044;DHT22;30784;48.490;9.688;2022-11-09T08:38:45;14.50;63.30
45044;DHT22;30784;48.490;9.688;2022-11-09T08:41:11;14.50;63.50
45044;DHT22;30784;48.490;9.688;2022-11-09T08:43:37;14.50;63.60
45044;DHT22;30784;48.490;9.688;2022-11-09T08:46:03;14.50;63.60
45044;DHT22;30784;48.490;9.688;2022-11-09T08:48:29;14.50;64.00
45044;DHT22;30784;48.490;9.688;2022-11-09T08:50:56;14.50;64.00
45044;DHT22;30784;48.490;9.688;2022-11-09T08:53:25;14.50;64.20
45044;DHT22;30784;48.490;9.688;2022-11-09T08:55:51;14.50;64.10
45044;DHT22;30784;48.490;9.688;2022-11-09T08:58:17;14.40;64.10
45044;DHT22;30784;48.490;9.688;2022-11-09T09:00:43;14.40;64.30
45044;DHT22;30784;48.490;9.688;2022-11-09T09:03:09;14.40;64.30
45044;DHT22;30784;48.490;9.688;2022-11-09T09:05:35;14.40;64.40
45044;DHT22;30784;48.490;9.688;2022-11-09T09:08:02;14.30;64.50
45044;DHT22;30784;48.490;9.688;2022-11-09T09:10:28;14.30;64.60
45044;DHT22;30784;48.490;9.688;2022-11-09T09:12:54;14.40;64.80
45044;DHT22;30784;48.490;9.688;2022-11-09T09:15:20;14.30;64.60
45044;DHT22;30784;48.490;9.688;2022-11-09T09:17:46;14.40;64.80
45044;DHT22;30784;48.490;9.688;2022-11-09T09:20:12;14.40;64.70
45044;DHT22;30784;48.490;9.688;2022-11-09T09:22:37;14.40;64.70
45044;DHT22;30784;48.490;9.688;2022-11-09T09:25:03;14.40;64.70
45044;DHT22;30784;48.490;9.688;2022-11-09T09:27:29;14.40;64.70
45044;DHT22;30784;48.490;9.688;2022-11-09T09:29:55;14.40;64.60
45044;DHT22;30784;48.490;9.688;2022-11-09T09:32:21;14.50;64.60
45044;DHT22;30784;48.490;9.688;2022-11-09T09:34:46;14.50;64.80
45044;DHT22;30784;48.490;9.688;2022-11-09T09:37:12;14.50;64.60
45044;DHT22;30784;48.490;9.688;2022-11-09T09:39:38;14.50;64.70
45044;DHT22;30784;48.490;9.688;2022-11-09T09:42:06;14.60;64.70
45044;DHT22;30784;48.490;9.688;2022-11-09T09:47:59;14.60;64.30
45044;DHT22;30784;48.490;9.688;2022-11-09T09:50:51;14.60;64.10
45044;DHT22;30784;48.490;9.688;2022-11-09T09:53:31;14.70;64.50
45044;DHT22;30784;48.490;9.688;2022-11-09T09:58:57;14.70;64.40
45044;DHT22;30784;48.490;9.688;2022-11-09T10:01:27;14.70;64.30
45044;DHT22;30784;48.490;9.688;2022-11-09T10:03:59;14.70;65.10
45044;DHT22;30784;48.490;9.688;2022-11-09T10:06:39;14.70;64.40
45044;DHT22;30784;48.490;9.688;2022-11-09T10:12:32;14.80;64.50
45044;DHT22;30784;48.490;9.688;2022-11-09T10:15:10;14.80;64.40
45044;DHT22;30784;48.490;9.688;2022-11-09T10:17:47;14.80;64.50
45044;DHT22;30784;48.490;9.688;2022-11-09T10:20:51;14.90;64.40
45044;DHT22;30784;48.490;9.688;2022-11-09T10:28:43;14.90;64.30
45044;DHT22;30784;48.490;9.688;2022-11-09T10:31:16;15.00;64.50
45044;DHT22;30784;48.490;9.688;2022-11-09T10:33:44;15.00;64.40
45044;DHT22;30784;48.490;9.688;2022-11-09T10:36:19;15.00;64.40
45044;DHT22;30784;48.490;9.688;2022-11-09T10:38:50;15.00;64.40
45044;DHT22;30784;48.490;9.688;2022-11-09T10:41:30;15.10;64.60
45044;DHT22;30784;48.490;9.688;2022-11-09T10:43:57;15.10;64.50
45044;DHT22;30784;48.490;9.688;2022-11-09T10:46:23;15.10;64.60
45044;DHT22;30784;48.490;9.688;2022-11-09T10:48:50;15.20;64.70
45044;DHT22;30784;48.490;9.688;2022-11-09T10:56:51;15.40;64.90
45044;DHT22;30784;48.490;9.688;2022-11-09T11:02:00;15.70;64.80
45044;DHT22;30784;48.490;9.688;2022-11-09T11:04:26;15.90;65.00
45044;DHT22;30784;48.490;9.688;2022-11-09T11:06:51;16.00;64.90
45044;DHT22;30784;48.490;9.688;2022-11-09T11:09:20;16.10;64.60
45044;DHT22;30784;48.490;9.688;2022-11-09T11:11:46;16.30;64.30
45044;DHT22;30784;48.490;9.688;2022-11-09T11:14:35;16.40;63.90
45044;DHT22;30784;48.490;9.688;2022-11-09T11:17:20;16.60;64.10
45044;DHT22;30784;48.490;9.688;2022-11-09T11:19:46;16.80;63.60
45044;DHT22;30784;48.490;9.688;2022-11-09T11:25:00;17.10;63.10
45044;DHT22;30784;48.490;9.688;2022-11-09T11:27:52;17.20;62.20
45044;DHT22;30784;48.490;9.688;2022-11-09T11:30:26;17.30;62.80
45044;DHT22;30784;48.490;9.688;2022-11-09T11:32:56;17.40;61.60
45044;DHT22;30784;48.490;9.688;2022-11-09T11:35:35;17.50;61.50
45044;DHT22;30784;48.490;9.688;2022-11-09T11:46:26;17.70;60.30
45044;DHT22;30784;48.490;9.688;2022-11-09T11:49:31;17.60;60.40
45044;DHT22;30784;48.490;9.688;2022-11-09T11:57:31;17.60;59.20
45044;DHT22;30784;48.490;9.688;2022-11-09T12:00:15;17.60;59.50
45044;DHT22;30784;48.490;9.688;2022-11-09T12:13:45;17.50;58.90
45044;DHT22;30784;48.490;9.688;2022-11-09T12:16:39;17.50;58.90
45044;DHT22;30784;48.490;9.688;2022-11-09T12:22:58;17.40;58.60
45044;DHT22;30784;48.490;9.688;2022-11-09T12:30:47;17.40;59.00
45044;DHT22;30784;48.490;9.688;2022-11-09T12:33:22;17.40;58.20
45044;DHT22;30784;48.490;9.688;2022-11-09T12:36:30;17.40;58.20
45044;DHT22;30784;48.490;9.688;2022-11-09T12:39:00;17.30;58.00
45044;DHT22;30784;48.490;9.688;2022-11-09T12:41:32;17.30;58.10
45044;DHT22;30784;48.490;9.688;2022-11-09T12:44:12;17.30;57.90
45044;DHT22;30784;48.490;9.688;2022-11-09T12:46:45;17.30;58.10
45044;DHT22;30784;48.490;9.688;2022-11-09T12:49:43;17.20;57.90
45044;DHT22;30784;48.490;9.688;2022-11-09T12:52:14;17.20;58.10
45044;DHT22;30784;48.490;9.688;2022-11-09T12:54:46;17.20;57.60
45044;DHT22;30784;48.490;9.688;2022-11-09T12:57:23;17.10;57.50
45044;DHT22;30784;48.490;9.688;2022-11-09T12:59:51;17.20;57.50
45044;DHT22;30784;48.490;9.688;2022-11-09T13:02:34;17.10;57.30
45044;DHT22;30784;48.490;9.688;2022-11-09T13:05:06;17.10;57.60
45044;DHT22;30784;48.490;9.688;2022-11-09T13:07:51;17.10;57.50
45044;DHT22;30784;48.490;9.688;2022-11-09T13:10:30;17.00;57.40
45044;DHT22;30784;48.490;9.688;2022-11-09T13:15:37;17.00;57.30
45044;DHT22;30784;48.490;9.688;2022-11-09T13:18:23;17.10;57.10
45044;DHT22;30784;48.490;9.688;2022-11-09T13:20:50;17.00;57.30
45044;DHT22;30784;48.490;9.688;2022-11-09T13:23:28;16.90;56.90
45044;DHT22;30784;48.490;9.688;2022-11-09T13:25:54;16.90;56.90
45044;DHT22;30784;48.490;9.688;2022-11-09T13:30:58;16.90;56.80
45044;DHT22;30784;48.490;9.688;2022-11-09T13:33:30;16.90;56.80
45044;DHT22;30784;48.490;9.688;2022-11-09T13:38:33;16.80;56.60
45044;DHT22;30784;48.490;9.688;2022-11-09T13:44:21;16.80;56.90
45044;DHT22;30784;48.490;9.688;2022-11-09T13:46:48;16.80;57.00
45044;DHT22;30784;48.490;9.688;2022-11-09T13:49:42;16.80;56.80
45044;DHT22;30784;48.490;9.688;2022-11-09T13:52:45;16.80;57.50
45044;DHT22;30784;48.490;9.688;2022-11-09T13:57:50;16.80;56.60
45044;DHT22;30784;48.490;9.688;2022-11-09T14:00:19;16.80;56.50
45044;DHT22;30784;48.490;9.688;2022-11-09T14:02:58;16.80;56.50
45044;DHT22;30784;48.490;9.688;2022-11-09T14:07:49;16.80;56.30
45044;DHT22;30784;48.490;9.688;2022-11-09T14:18:47;16.70;56.50
45044;DHT22;30784;48.490;9.688;2022-11-09T14:21:38;16.60;56.40
45044;DHT22;30784;48.490;9.688;2022-11-09T14:24:27;16.60;56.30
45044;DHT22;30784;48.490;9.688;2022-11-09T14:29:53;16.60;56.10
45044;DHT22;30784;48.490;9.688;2022-11-09T14:32:34;16.60;56.20
45044;DHT22;30784;48.490;9.688;2022-11-09T14:37:46;16.60;56.40
45044;DHT22;30784;48.490;9.688;2022-11-09T14:40:26;16.50;56.20
45044;DHT22;30784;48.490;9.688;2022-11-09T14:42:55;16.50;56.20
45044;DHT22;30784;48.490;9.688;2022-11-09T14:45:22;16.60;56.20
45044;DHT22;30784;48.490;9.688;2022-11-09T14:47:50;16.50;56.00
45044;DHT22;30784;48.490;9.688;2022-11-09T14:50:20;16.50;55.90
45044;DHT22;30784;48.490;9.688;2022-11-09T14:52:47;16.50;55.80
45044;DHT22;30784;48.490;9.688;2022-11-09T14:55:14;16.50;55.90
45044;DHT22;30784;48.490;9.688;2022-11-09T14:57:42;16.50;55.90
45044;DHT22;30784;48.490;9.688;2022-11-09T15:00:27;16.50;56.00
45044;DHT22;30784;48.490;9.688;2022-11-09T15:02:53;16.40;56.00
45044;DHT22;30784;48.490;9.688;2022-11-09T15:05:37;16.50;56.10
45044;DHT22;30784;48.490;9.688;2022-11-09T15:08:09;16.40;56.00
45044;DHT22;30784;48.490;9.688;2022-11-09T15:10:38;16.40;56.00
45044;DHT22;30784;48.490;9.688;2022-11-09T15:13:03;16.40;56.00
45044;DHT22;30784;48.490;9.688;2022-11-09T15:15:31;16.40;56.00
45044;DHT22;30784;48.490;9.688;2022-11-09T15:17:57;16.40;56.10
45044;DHT22;30784;48.490;9.688;2022-11-09T15:20:28;16.40;56.20
45044;DHT22;30784;48.490;9.688;2022-11-09T15:23:05;16.30;56.30
45044;DHT22;30784;48.490;9.688;2022-11-09T15:30:44;16.30;56.60
45044;DHT22;30784;48.490;9.688;2022-11-09T15:33:17;16.40;56.70
45044;DHT22;30784;48.490;9.688;2022-11-09T15:35:59;16.30;56.80
45044;DHT22;30784;48.490;9.688;2022-11-09T15:40:55;16.30;56.90
45044;DHT22;30784;48.490;9.688;2022-11-09T15:43:21;16.20;57.00
45044;DHT22;30784;48.490;9.688;2022-11-09T15:45:47;16.30;57.00
45044;DHT22;30784;48.490;9.688;2022-11-09T15:48:12;16.20;57.00
45044;DHT22;30784;48.490;9.688;2022-11-09T15:50:38;16.10;57.00
45044;DHT22;30784;48.490;9.688;2022-11-09T15:53:04;16.10;57.10
45044;DHT22;30784;48.490;9.688;2022-11-09T15:55:30;16.10;57.40
45044;DHT22;30784;48.490;9.688;2022-11-09T15:57:58;16.10;57.40
45044;DHT22;30784;48.490;9.688;2022-11-09T16:00:23;16.00;57.50
45044;DHT22;30784;48.490;9.688;2022-11-09T16:02:49;16.10;57.60
45044;DHT22;30784;48.490;9.688;2022-11-09T16:05:15;16.00;57.60
45044;DHT22;30784;48.490;9.688;2022-11-09T16:07:48;16.00;57.70
45044;DHT22;30784;48.490;9.688;2022-11-09T16:10:14;15.90;57.60
45044;DHT22;30784;48.490;9.688;2022-11-09T16:12:48;15.90;57.80
45044;DHT22;30784;48.490;9.688;2022-11-09T16:15:24;15.90;57.90
45044;DHT22;30784;48.490;9.688;2022-11-09T16:17:49;15.90;57.90
45044;DHT22;30784;48.490;9.688;2022-11-09T16:20:19;15.90;58.00
45044;DHT22;30784;48.490;9.688;2022-11-09T16:22:46;15.80;58.00
45044;DHT22;30784;48.490;9.688;2022-11-09T16:25:12;15.90;58.20
45044;DHT22;30784;48.490;9.688;2022-11-09T16:27:41;15.90;58.30
45044;DHT22;30784;48.490;9.688;2022-11-09T16:30:08;15.90;58.20
45044;DHT22;30784;48.490;9.688;2022-11-09T16:32:37;15.80;58.40
45044;DHT22;30784;48.490;9.688;2022-11-09T16:35:04;15.80;58.50
45044;DHT22;30784;48.490;9.688;2022-11-09T16:37:33;15.70;58.30
45044;DHT22;30784;48.490;9.688;2022-11-09T16:40:00;15.70;58.70
45044;DHT22;30784;48.490;9.688;2022-11-09T16:42:33;15.70;58.80
45044;DHT22;30784;48.490;9.688;2022-11-09T16:45:04;15.60;58.70
45044;DHT22;30784;48.490;9.688;2022-11-09T16:47:36;15.50;58.70
45044;DHT22;30784;48.490;9.688;2022-11-09T16:50:05;15.50;59.00
45044;DHT22;30784;48.490;9.688;2022-11-09T16:52:31;15.40;59.10
45044;DHT22;30784;48.490;9.688;2022-11-09T16:54:59;15.30;59.30
45044;DHT22;30784;48.490;9.688;2022-11-09T16:57:25;15.30;59.50
45044;DHT22;30784;48.490;9.688;2022-11-09T16:59:50;15.30;59.60
45044;DHT22;30784;48.490;9.688;2022-11-09T17:02:16;15.20;59.70
45044;DHT22;30784;48.490;9.688;2022-11-09T17:04:45;15.20;59.80
45044;DHT22;30784;48.490;9.688;2022-11-09T17:07:10;15.10;59.80
45044;DHT22;30784;48.490;9.688;2022-11-09T17:09:36;15.10;59.80
45044;DHT22;30784;48.490;9.688;2022-11-09T17:12:02;15.20;60.20
45044;DHT22;30784;48.490;9.688;2022-11-09T17:14:29;15.10;60.30
45044;DHT22;30784;48.490;9.688;2022-11-09T17:16:54;15.10;60.20
45044;DHT22;30784;48.490;9.688;2022-11-09T17:19:20;15.00;60.40
45044;DHT22;30784;48.490;9.688;2022-11-09T17:21:46;15.00;60.50
45044;DHT22;30784;48.490;9.688;2022-11-09T17:24:12;15.00;60.50
45044;DHT22;30784;48.490;9.688;2022-11-09T17:26:37;14.90;60.60